Time;durP1;ratioP1;P1;durP2;ratioP2;P2;SDS_P1;SDS_P2;PMS_P1;PMS_P2;Temp;Humidity;BMP_temperature;BMP_pressure;BME280_temperature;BME280_humidity;BME280_pressure;Samples;Min_cycle;Max_cycle;Signal;HPM_P1;HPM_P2
2021/03/04 00:00:33;;;;;;;34.93;15.60;;;;;;;7.05;67.57;100845.77;5078068;56;1139073;-83
2021/03/04 00:05:40;;;;;;;49.37;20.33;;;;;;;7.05;68.00;100837.88;5078131;56;1139095;-80
2021/03/04 00:10:46;;;;;;;59.33;24.50;;;;;;;7.06;67.55;100832.15;5077589;56;1167902;-83
2021/03/04 00:15:53;;;;;;;35.20;16.07;;;;;;;6.99;67.61;100821.16;5078579;56;1138826;-85
2021/03/04 00:20:58;;;;;;;35.75;15.43;;;;;;;6.98;67.58;100827.35;5078163;56;1141090;-84
2021/03/04 00:26:04;;;;;;;49.27;19.50;;;;;;;6.97;67.91;100828.28;5078435;56;1139055;-78
2021/03/04 00:31:09;;;;;;;35.43;16.93;;;;;;;6.96;67.86;100820.48;5078135;56;1138859;-86
2021/03/04 00:36:15;;;;;;;36.20;18.00;;;;;;;6.98;67.89;100813.36;5077967;56;1141157;-81
2021/03/04 00:41:20;;;;;;;31.57;13.77;;;;;;;6.96;68.23;100809.97;5077897;56;1138862;-85
2021/03/04 00:46:26;;;;;;;43.17;18.03;;;;;;;6.95;68.83;100805.17;5077794;56;1138933;-75
2021/03/04 00:51:32;;;;;;;36.57;16.20;;;;;;;6.95;68.86;100795.97;5078125;56;1139281;-78
2021/03/04 00:56:37;;;;;;;32.43;15.20;;;;;;;7.00;68.81;100793.92;5077736;56;1138979;-81
2021/03/04 01:01:42;;;;;;;23.33;11.60;;;;;;;6.99;68.76;100791.39;5078009;56;1139119;-86
2021/03/04 01:06:48;;;;;;;42.27;15.07;;;;;;;6.93;69.32;100787.32;5079708;56;1139180;-78
2021/03/04 01:11:54;;;;;;;39.90;17.42;;;;;;;6.90;69.03;100765.14;5074710;56;1141232;-84
2021/03/04 01:17:00;;;;;;;29.70;13.45;;;;;;;6.86;69.24;100764.97;5090706;57;1138893;-83
2021/03/04 01:22:06;;;;;;;30.72;15.25;;;;;;;6.84;69.53;100758.95;5090789;56;1140925;-82
2021/03/04 01:27:12;;;;;;;25.57;12.30;;;;;;;6.80;69.95;100755.27;5090357;56;1138419;-83
2021/03/04 01:32:18;;;;;;;29.27;14.43;;;;;;;6.80;70.12;100749.53;5090528;56;1138553;-80
2021/03/04 01:37:23;;;;;;;36.47;16.77;;;;;;;6.79;70.31;100742.59;5090958;56;1138479;-80
2021/03/04 01:42:29;;;;;;;25.67;12.90;;;;;;;6.76;70.54;100741.44;5090879;56;1138498;-81
2021/03/04 01:47:37;;;;;;;25.30;11.73;;;;;;;6.74;70.32;100738.05;5091206;56;1138593;-79
2021/03/04 01:52:43;;;;;;;29.20;14.60;;;;;;;6.69;70.68;100733.55;5090860;56;1138380;-81
2021/03/04 01:57:50;;;;;;;31.10;15.03;;;;;;;6.64;71.07;100731.65;5104988;56;1140561;-80
2021/03/04 02:02:56;;;;;;;26.53;11.73;;;;;;;6.55;71.04;100730.88;4954000;58;1138792;-75
2021/03/04 02:08:25;;;;;;;26.43;12.57;;;;;;;6.50;71.63;100717.14;5155409;56;1138515;-78
2021/03/04 02:13:49;;;;;;;35.87;15.93;;;;;;;6.43;72.73;100707.91;5152019;56;1138601;-80
2021/03/04 02:19:00;;;;;;;36.23;15.90;;;;;;;6.41;72.55;100698.83;5153819;56;1138806;-82
2021/03/04 02:24:28;;;;;;;29.30;14.07;;;;;;;6.38;72.91;100687.18;5141197;56;1138938;-81
2021/03/04 02:30:02;;;;;;;28.80;14.03;;;;;;;6.35;72.98;100689.51;5122265;56;1141058;-75
2021/03/04 02:35:31;;;;;;;40.30;19.00;;;;;;;6.26;73.74;100695.77;5091341;56;1138876;-77
2021/03/04 02:40:41;;;;;;;36.00;16.33;;;;;;;6.24;73.13;100691.91;5164658;55;1140925;-79
2021/03/04 02:45:47;;;;;;;32.73;14.90;;;;;;;6.21;74.44;100689.45;5174231;55;1138862;-79
2021/03/04 02:50:55;;;;;;;32.93;16.53;;;;;;;6.21;74.35;100679.41;5175599;55;1141203;-77
2021/03/04 02:56:02;;;;;;;35.33;16.52;;;;;;;6.19;74.69;100686.53;5188915;55;1139131;-80
2021/03/04 03:01:08;;;;;;;38.30;19.87;;;;;;;6.19;74.77;100678.19;5163435;55;1141233;-74
2021/03/04 03:06:13;;;;;;;37.93;15.27;;;;;;;6.19;74.85;100687.84;5168243;55;1141215;-79
2021/03/04 03:11:20;;;;;;;34.00;17.23;;;;;;;6.14;75.96;100680.22;5155760;56;1139009;-81
2021/03/04 03:16:28;;;;;;;36.97;17.33;;;;;;;6.13;76.04;100689.02;5156072;56;1141024;-75
2021/03/04 03:21:35;;;;;;;35.23;17.92;;;;;;;6.14;76.39;100692.03;5155977;56;1141136;-76
2021/03/04 03:26:41;;;;;;;33.53;15.70;;;;;;;6.13;76.51;100688.17;5156175;56;1138879;-81
2021/03/04 03:31:50;;;;;;;43.00;19.87;;;;;;;6.15;76.75;100691.56;5131814;55;1140981;-78
2021/03/04 03:36:57;;;;;;;38.80;17.75;;;;;;;6.14;76.19;100693.81;5091279;56;1141001;-76
2021/03/04 03:42:06;;;;;;;39.67;20.75;;;;;;;6.12;76.21;100698.30;5116110;56;1139112;-77
2021/03/04 03:47:12;;;;;;;33.00;16.57;;;;;;;6.12;76.07;100693.89;5174482;56;1140467;-80
2021/03/04 03:52:19;;;;;;;41.03;21.10;;;;;;;6.08;76.88;100689.77;5157222;56;1140526;-82
2021/03/04 03:57:27;;;;;;;46.60;19.27;;;;;;;6.06;77.17;100696.03;5154594;56;1140438;-76
2021/03/04 04:02:33;;;;;;;50.43;24.07;;;;;;;6.02;78.92;100698.45;5161800;55;1138280;-79
2021/03/04 04:07:40;;;;;;;56.10;24.18;;;;;;;6.00;77.95;100697.22;5178104;55;1140693;-77
2021/03/04 04:12:45;;;;;;;55.05;24.57;;;;;;;5.95;79.16;100683.05;5172313;56;1140655;-81
2021/03/04 04:17:54;;;;;;;55.03;24.12;;;;;;;5.96;79.16;100681.24;5152322;56;1140722;-82
2021/03/04 04:23:01;;;;;;;51.95;25.55;;;;;;;5.96;79.85;100677.30;5181008;55;1140785;-80
2021/03/04 04:28:06;;;;;;;61.65;32.10;;;;;;;5.97;79.21;100682.47;5249357;55;1141161;-76
2021/03/04 04:33:13;;;;;;;48.30;23.33;;;;;;;6.02;78.76;100686.62;5248007;55;1140655;-77
2021/03/04 04:38:18;;;;;;;60.53;28.17;;;;;;;6.05;78.89;100681.21;5248901;55;1140628;-78
2021/03/04 04:43:24;;;;;;;50.83;25.90;;;;;;;6.04;78.96;100674.27;5249012;55;1140558;-84
2021/03/04 04:48:30;;;;;;;58.67;25.60;;;;;;;6.03;79.39;100675.20;5248959;55;1140492;-78
2021/03/04 04:53:35;;;;;;;63.50;32.37;;;;;;;6.02;79.24;100672.19;5248936;55;1140540;-82
2021/03/04 04:58:41;;;;;;;59.73;29.00;;;;;;;6.02;79.02;100666.47;5214123;55;1140562;-80
2021/03/04 05:03:47;;;;;;;60.33;31.00;;;;;;;6.04;78.89;100658.05;5077482;56;1140582;-84
2021/03/04 05:08:52;;;;;;;56.58;26.75;;;;;;;6.02;78.73;100659.91;5114581;56;1141177;-80
2021/03/04 05:13:58;;;;;;;68.60;33.63;;;;;;;5.99;79.17;100648.27;4983746;57;1141191;-82
2021/03/04 05:19:04;;;;;;;64.75;31.12;;;;;;;6.02;79.01;100652.03;5003463;57;1141136;-81
2021/03/04 05:24:09;;;;;;;73.07;35.33;;;;;;;5.99;79.14;100655.67;5092124;56;1141033;-77
2021/03/04 05:29:15;;;;;;;65.13;27.80;;;;;;;5.98;79.12;100652.66;5095915;56;1141062;-79
2021/03/04 05:34:20;;;;;;;53.77;25.73;;;;;;;5.98;79.44;100644.79;5084593;57;1141064;-78
2021/03/04 05:39:26;;;;;;;62.53;32.27;;;;;;;5.97;79.16;100640.94;5085319;56;1140720;-83
2021/03/04 05:44:32;;;;;;;69.37;39.07;;;;;;;5.97;78.82;100641.78;5084601;56;1140526;-81
2021/03/04 05:49:43;;;;;;;66.63;29.67;;;;;;;5.94;78.42;100638.05;5084944;57;1140854;-79
2021/03/04 05:54:49;;;;;;;74.07;35.33;;;;;;;5.93;78.64;100646.84;5084719;57;1140522;-83
2021/03/04 05:59:56;;;;;;;78.53;37.00;;;;;;;5.91;78.28;100646.09;5053951;57;1141104;-83
2021/03/04 06:05:02;;;;;;;75.47;32.73;;;;;;;5.92;78.24;100648.25;5095757;56;1141325;-82
2021/03/04 06:10:09;;;;;;;66.40;28.97;;;;;;;5.89;78.04;100647.95;5040959;57;1148962;-82
2021/03/04 06:15:15;;;;;;;77.47;32.37;;;;;;;5.85;78.38;100653.41;5015142;57;1141143;-77
2021/03/04 06:20:20;;;;;;;67.97;27.20;;;;;;;5.83;78.25;100656.12;5038397;57;1141107;-80
2021/03/04 06:25:26;;;;;;;86.67;38.70;;;;;;;5.82;78.04;100664.92;5039535;57;1140986;-75
2021/03/04 06:30:41;;;;;;;88.70;40.43;;;;;;;5.77;78.03;100668.29;5022586;56;1138890;-79
2021/03/04 06:35:46;;;;;;;91.30;37.80;;;;;;;5.76;77.83;100665.28;5018522;57;1141029;-81
2021/03/04 06:40:53;;;;;;;70.10;31.20;;;;;;;5.76;77.07;100664.44;4991778;57;1141054;-84
2021/03/04 06:46:07;;;;;;;65.92;26.02;;;;;;;5.76;77.07;100664.44;5014128;57;1144696;-80
2021/03/04 06:51:12;;;;;;;61.80;26.47;;;;;;;5.78;76.91;100664.73;4986384;57;1141308;-81
2021/03/04 06:56:30;;;;;;;67.33;31.60;;;;;;;5.68;76.45;100666.16;5063386;57;1139131;-78
2021/03/04 07:01:40;;;;;;;45.30;20.03;;;;;;;5.59;76.23;100674.54;5059941;57;1139124;-83
2021/03/04 07:06:49;;;;;;;51.80;20.30;;;;;;;5.41;75.92;100669.82;4995367;57;1139323;-79
2021/03/04 07:11:55;;;;;;;51.00;19.70;;;;;;;5.41;75.92;100669.82;4994962;57;1138939;-80
2021/03/04 07:17:02;;;;;;;58.55;27.25;;;;;;;5.37;76.18;100674.84;5058588;57;1138947;-80
2021/03/04 07:22:11;;;;;;;66.60;28.17;;;;;;;5.36;76.14;100675.77;5059320;57;1138952;-77
2021/03/04 07:27:17;;;;;;;56.43;22.33;;;;;;;5.30;75.82;100687.45;5051870;57;1138965;-75
2021/03/04 07:32:24;;;;;;;65.83;29.07;;;;;;;5.25;76.01;100689.92;4997945;58;1138953;-78
2021/03/04 07:37:30;;;;;;;62.20;31.07;;;;;;;5.25;76.01;100689.92;4997496;58;1138472;-75
2021/03/04 07:42:36;;;;;;;59.43;25.73;;;;;;;5.28;75.73;100689.77;4997941;58;1138357;-79
2021/03/04 07:47:43;;;;;;;50.27;22.80;;;;;;;5.26;75.46;100703.41;4997080;58;1138428;-81
2021/03/04 07:52:48;;;;;;;62.90;29.57;;;;;;;5.23;75.16;100691.31;4997441;58;1138583;-79
2021/03/04 07:57:54;;;;;;;50.97;23.27;;;;;;;5.16;75.06;100683.86;4994767;58;1230701;-80
2021/03/04 08:03:03;;;;;;;38.88;18.60;;;;;;;5.15;74.92;100683.02;4997872;58;1138959;-75
2021/03/04 08:08:25;;;;;;;96.92;42.62;;;;;;;5.13;74.95;100695.35;4998524;58;1138843;-75
2021/03/04 08:13:38;;;;;;;37.53;17.43;;;;;;;5.13;74.93;100692.73;4998728;58;1138853;-82
2021/03/04 08:18:45;;;;;;;47.50;23.53;;;;;;;5.08;74.63;100689.48;4997911;58;1138623;-79
2021/03/04 08:23:52;;;;;;;43.27;19.60;;;;;;;5.05;75.00;100692.27;4948181;58;1138546;-77
2021/03/04 08:29:10;;;;;;;53.07;21.53;;;;;;;5.05;75.00;100692.27;4987468;57;1139178;-81
2021/03/04 08:34:16;;;;;;;55.38;23.50;;;;;;;5.02;74.79;100694.22;4998602;57;1139219;-79
2021/03/04 08:39:24;;;;;;;35.10;14.80;;;;;;;4.86;74.69;100696.78;4998838;57;1139156;-78
2021/03/04 08:44:29;;;;;;;55.17;26.67;;;;;;;4.81;75.13;100695.70;4998750;57;1139277;-81
2021/03/04 08:49:35;;;;;;;46.50;19.87;;;;;;;4.75;74.96;100688.14;4998919;57;1139097;-80
2021/03/04 08:54:45;;;;;;;49.80;23.80;;;;;;;4.66;74.85;100690.39;4998033;57;1139131;-81
2021/03/04 09:00:09;;;;;;;62.40;21.90;;;;;;;4.60;74.75;100697.63;4998808;57;1138887;-80
2021/03/04 09:05:19;;;;;;;153.40;75.13;;;;;;;4.60;74.52;100693.69;4998667;57;1139033;-75
2021/03/04 09:10:24;;;;;;;221.60;104.33;;;;;;;4.58;74.42;100707.32;4991093;57;1141031;-79
2021/03/04 09:15:30;;;;;;;87.80;44.80;;;;;;;4.55;73.75;100704.03;4998088;57;1143091;-78
2021/03/04 09:20:36;;;;;;;106.90;64.17;;;;;;;4.45;73.46;100702.31;4982909;57;1138900;-77
2021/03/04 09:25:42;;;;;;;62.50;36.13;;;;;;;4.46;73.92;100701.85;4988994;57;1140993;-77
2021/03/04 09:30:47;;;;;;;84.70;50.43;;;;;;;4.47;73.83;100717.48;4995433;57;1138877;-79
2021/03/04 09:35:59;;;;;;;49.17;39.23;;;;;;;4.51;73.66;100719.05;4998575;57;1138363;-76
2021/03/04 09:41:16;;;;;;;35.67;20.63;;;;;;;4.49;73.60;100713.03;5000969;57;1138473;-79
2021/03/04 09:46:43;;;;;;;30.37;14.27;;;;;;;4.47;73.42;100713.56;4989246;57;1139100;-78
2021/03/04 09:51:46;;;;;;;34.80;15.60;;;;;;;4.46;73.17;100717.56;4978529;57;1139150;-76
2021/03/04 09:57:08;;;;;;;36.53;16.90;;;;;;;4.37;73.05;100725.42;4991056;57;1139191;-78
2021/03/04 10:02:15;;;;;;;50.67;22.07;;;;;;;4.47;73.42;100730.58;4999987;57;1138493;-81
2021/03/04 10:07:26;;;;;;;28.67;12.50;;;;;;;4.49;73.04;100732.67;4995907;57;1138794;-77
2021/03/04 10:12:31;;;;;;;33.37;16.47;;;;;;;4.45;72.50;100740.28;4977832;57;1138871;-78
2021/03/04 10:17:41;;;;;;;38.43;16.50;;;;;;;4.40;73.02;100740.14;4993326;57;1138943;-76
2021/03/04 10:22:48;;;;;;;33.20;17.23;;;;;;;4.46;72.92;100740.67;4989397;57;1138577;-78
2021/03/04 10:27:55;;;;;;;30.60;16.07;;;;;;;4.41;72.59;100745.30;5010477;57;1138857;-75
2021/03/04 10:33:03;;;;;;;31.40;14.80;;;;;;;4.33;72.88;100743.50;5005300;57;1138805;-76
2021/03/04 10:38:09;;;;;;;36.57;16.90;;;;;;;4.35;72.69;100740.35;5005228;57;1138946;-78
2021/03/04 10:43:14;;;;;;;25.23;11.53;;;;;;;4.32;72.58;100742.27;5004786;58;1138624;-77
2021/03/04 10:48:21;;;;;;;26.87;11.13;;;;;;;4.24;72.16;100751.35;5005036;58;1138518;-80
2021/03/04 10:53:27;;;;;;;47.83;19.20;;;;;;;4.20;72.45;100744.55;5004620;58;1138654;-74
2021/03/04 10:58:32;;;;;;;55.03;21.00;;;;;;;4.24;72.77;100753.13;5004830;58;1138541;-79
2021/03/04 11:03:38;;;;;;;25.40;12.43;;;;;;;4.28;72.67;100748.10;5005442;57;1138723;-78
2021/03/04 11:08:44;;;;;;;29.73;13.37;;;;;;;4.32;72.61;100749.66;5004713;58;1139181;-75
2021/03/04 11:13:49;;;;;;;17.60;10.13;;;;;;;4.23;72.69;100739.19;5004801;58;1138431;-76
2021/03/04 11:18:55;;;;;;;35.40;17.40;;;;;;;4.21;72.71;100742.79;5004896;58;1138589;-78
2021/03/04 11:24:00;;;;;;;33.33;16.20;;;;;;;4.20;73.17;100739.32;5003492;58;1140190;-78
2021/03/04 11:29:08;;;;;;;37.95;17.52;;;;;;;4.24;72.95;100742.19;4982967;57;1138940;-77
2021/03/04 11:34:14;;;;;;;40.50;17.87;;;;;;;4.22;72.68;100736.63;4898116;58;1139354;-78
2021/03/04 11:39:19;;;;;;;37.15;15.88;;;;;;;4.20;72.93;100729.31;4976899;58;1138967;-77
2021/03/04 11:44:25;;;;;;;28.03;12.73;;;;;;;4.27;73.07;100727.27;4976847;58;1138979;-78
2021/03/04 11:49:30;;;;;;;20.90;10.97;;;;;;;4.31;72.60;100720.92;4977530;58;1138939;-78
2021/03/04 11:54:36;;;;;;;23.17;11.57;;;;;;;4.18;72.38;100708.90;4976883;58;1139151;-79
2021/03/04 11:59:41;;;;;;;56.20;25.40;;;;;;;4.09;72.49;100700.19;4977217;58;1138937;-78
2021/03/04 12:04:47;;;;;;;72.53;34.37;;;;;;;4.06;72.67;100686.79;4977281;58;1139046;-77
2021/03/04 12:09:53;;;;;;;83.33;34.43;;;;;;;4.13;72.85;100686.02;4977945;58;1138918;-77
2021/03/04 12:14:59;;;;;;;131.17;64.93;;;;;;;4.17;72.79;100683.64;4977367;58;1138929;-78
2021/03/04 12:20:07;;;;;;;39.30;19.70;;;;;;;4.09;72.34;100686.65;4977335;58;1140604;-79
2021/03/04 12:25:13;;;;;;;35.40;20.47;;;;;;;4.08;72.91;100677.55;4977384;58;1138707;-77
2021/03/04 12:30:20;;;;;;;27.23;18.90;;;;;;;4.02;72.59;100677.37;5130225;56;1138925;-80
2021/03/04 12:35:25;;;;;;;19.67;11.70;;;;;;;3.71;72.38;100677.98;5156530;56;1138690;-78
2021/03/04 12:40:34;;;;;;;21.57;7.60;;;;;;;3.56;72.60;100685.69;5156636;56;1139203;-75
2021/03/04 12:45:39;;;;;;;14.85;6.85;;;;;;;3.39;73.29;100686.45;5156110;56;1136641;-78
2021/03/04 12:50:44;;;;;;;19.03;9.07;;;;;;;3.32;73.37;100693.75;5156448;56;1136652;-76
2021/03/04 12:55:51;;;;;;;17.13;7.67;;;;;;;3.35;73.51;100688.39;5108284;56;1136804;-80
2021/03/04 13:00:58;;;;;;;23.40;11.17;;;;;;;3.31;73.30;100685.52;5072030;56;1136842;-78
2021/03/04 13:06:05;;;;;;;30.10;11.00;;;;;;;3.28;73.41;100675.19;5085505;56;1139257;-77
2021/03/04 13:11:10;;;;;;;21.07;12.00;;;;;;;3.33;73.52;100677.14;5073802;56;1139455;-77
2021/03/04 13:16:16;;;;;;;14.38;7.25;;;;;;;3.36;73.67;100677.47;5071738;56;1138880;-77
2021/03/04 13:21:22;;;;;;;14.90;7.70;;;;;;;3.29;74.07;100679.50;5071768;57;1137072;-78
2021/03/04 13:26:28;;;;;;;20.60;9.35;;;;;;;3.28;74.07;100683.03;5071271;57;1136961;-76
2021/03/04 13:31:34;;;;;;;28.90;9.80;;;;;;;3.24;74.11;100676.23;5072042;57;1136996;-81
2021/03/04 13:36:40;;;;;;;21.77;8.97;;;;;;;3.33;74.18;100665.39;5071703;57;1136795;-78
2021/03/04 13:41:45;;;;;;;21.00;7.77;;;;;;;3.41;73.80;100664.56;5072427;57;1137022;-79
2021/03/04 13:46:51;;;;;;;45.83;18.20;;;;;;;3.46;73.47;100668.28;5072079;57;1137020;-78
2021/03/04 13:51:56;;;;;;;24.37;10.73;;;;;;;3.54;73.30;100672.23;5071905;57;1139354;-77
2021/03/04 13:57:02;;;;;;;21.50;8.67;;;;;;;3.63;72.96;100663.58;5071796;57;1139143;-79
2021/03/04 14:02:08;;;;;;;24.63;9.78;;;;;;;3.66;72.42;100663.45;5072134;57;1136861;-79
2021/03/04 14:07:14;;;;;;;30.20;9.67;;;;;;;3.56;71.64;100672.62;5071478;57;1136887;-80
2021/03/04 14:12:19;;;;;;;37.13;14.23;;;;;;;3.52;71.94;100665.36;5071688;57;1136815;-78
2021/03/04 14:17:25;;;;;;;17.03;7.93;;;;;;;3.52;71.82;100667.52;5070877;57;1138871;-76
2021/03/04 14:22:30;;;;;;;13.27;6.33;;;;;;;3.53;71.98;100666.60;5071402;57;1137094;-76
2021/03/04 14:27:36;;;;;;;23.07;8.80;;;;;;;3.60;71.74;100664.56;5012935;57;1137380;-77
2021/03/04 14:32:42;;;;;;;18.17;8.13;;;;;;;3.60;71.93;100658.03;5040109;57;1136884;-79
2021/03/04 14:37:48;;;;;;;13.63;5.80;;;;;;;3.63;71.67;100648.73;5072176;57;1136956;-76
2021/03/04 14:42:54;;;;;;;21.70;9.80;;;;;;;3.65;71.41;100645.59;5073196;57;1137062;-80
2021/03/04 14:47:59;;;;;;;17.43;9.00;;;;;;;3.61;71.37;100628.34;5072652;57;1136800;-76
2021/03/04 14:53:05;;;;;;;38.27;23.43;;;;;;;3.62;71.38;100632.66;5073293;57;1136973;-76
2021/03/04 14:58:10;;;;;;;37.40;21.73;;;;;;;3.64;71.43;100629.97;5072202;57;1139147;-79
2021/03/04 15:03:16;;;;;;;24.12;9.50;;;;;;;3.65;71.59;100629.06;5067132;57;1139133;-79
2021/03/04 15:08:21;;;;;;;22.67;10.82;;;;;;;3.65;71.33;100624.67;5072729;56;1137082;-78
2021/03/04 15:13:27;;;;;;;16.57;7.23;;;;;;;3.64;71.53;100630.83;5072521;56;1138452;-78
2021/03/04 15:18:33;;;;;;;20.47;8.40;;;;;;;3.65;71.50;100618.59;5073273;56;1136453;-76
2021/03/04 15:23:39;;;;;;;35.10;13.33;;;;;;;3.67;71.71;100618.03;5072679;57;1136503;-77
2021/03/04 15:28:45;;;;;;;18.17;6.87;;;;;;;3.64;71.78;100626.90;5081678;56;1138607;-76
2021/03/04 15:33:51;;;;;;;64.33;25.60;;;;;;;3.66;71.77;100630.75;4984982;57;1136759;-76
2021/03/04 15:38:57;;;;;;;82.90;41.87;;;;;;;3.58;71.84;100614.56;5006887;58;1138565;-76
2021/03/04 15:44:03;;;;;;;36.77;15.33;;;;;;;3.50;72.11;100618.86;5007360;58;1138571;-76
2021/03/04 15:49:10;;;;;;;24.50;13.35;;;;;;;3.55;72.30;100618.16;5007364;58;1138756;-78
2021/03/04 15:54:16;;;;;;;21.60;11.33;;;;;;;3.60;72.48;100624.49;5006990;58;1138449;-76
2021/03/04 15:59:22;;;;;;;26.03;12.87;;;;;;;3.62;72.45;100630.50;5007174;58;1138525;-78
2021/03/04 16:04:29;;;;;;;24.97;12.30;;;;;;;3.59;72.68;100627.56;5012228;57;1138607;-78
2021/03/04 16:09:35;;;;;;;28.27;13.37;;;;;;;3.44;73.17;100624.36;5007597;57;1138480;-78
2021/03/04 16:14:41;;;;;;;29.97;14.77;;;;;;;3.38;73.50;100635.94;5030704;57;1138663;-78
2021/03/04 16:19:47;;;;;;;40.37;16.47;;;;;;;3.32;73.82;100640.62;5052008;57;1138649;-78
2021/03/04 16:24:54;;;;;;;25.13;10.87;;;;;;;3.23;74.05;100640.56;5011163;57;1138467;-76
2021/03/04 16:30:00;;;;;;;43.00;19.60;;;;;;;3.26;74.49;100639.58;5016705;57;1138429;-79
2021/03/04 16:35:08;;;;;;;25.97;10.53;;;;;;;3.22;74.58;100648.47;5038447;57;1138831;-79
2021/03/04 16:40:15;;;;;;;29.33;12.47;;;;;;;3.22;74.75;100644.55;5026520;57;1138442;-78
2021/03/04 16:45:20;;;;;;;23.95;8.08;;;;;;;3.16;74.95;100649.16;5022190;57;1138411;-77
2021/03/04 16:50:26;;;;;;;37.53;13.47;;;;;;;3.11;75.43;100631.52;5056185;57;1136410;-77
2021/03/04 16:55:33;;;;;;;40.20;14.37;;;;;;;3.08;75.41;100636.02;5085004;57;1138762;-79
2021/03/04 17:00:39;;;;;;;104.35;31.05;;;;;;;3.07;75.69;100640.41;5085108;57;1138711;-77
2021/03/04 17:05:45;;;;;;;34.73;15.30;;;;;;;3.08;75.70;100642.09;5085449;57;1140732;-78
2021/03/04 17:10:51;;;;;;;35.55;13.43;;;;;;;3.03;75.93;100645.40;5085091;56;1138584;-77
2021/03/04 17:15:57;;;;;;;43.07;17.50;;;;;;;3.04;75.97;100656.70;5084949;57;1138547;-77
2021/03/04 17:21:03;;;;;;;40.67;15.83;;;;;;;3.02;75.98;100655.91;5085320;57;1138544;-76
2021/03/04 17:26:09;;;;;;;53.53;23.97;;;;;;;3.02;76.31;100655.45;5043950;57;1138614;-78
2021/03/04 17:31:14;;;;;;;28.83;12.23;;;;;;;3.06;76.22;100656.99;5085239;57;1138595;-77
2021/03/04 17:36:20;;;;;;;44.70;19.60;;;;;;;3.10;76.44;100666.41;5012437;57;1138605;-84
2021/03/04 17:41:27;;;;;;;37.03;15.80;;;;;;;3.08;76.50;100670.84;5012551;57;1138917;-81
2021/03/04 17:46:33;;;;;;;22.67;10.53;;;;;;;3.05;76.47;100675.38;4998958;57;1139148;-84
2021/03/04 17:51:39;;;;;;;24.70;12.20;;;;;;;2.97;76.79;100680.92;5085235;57;1139169;-76
2021/03/04 17:56:45;;;;;;;28.07;14.47;;;;;;;2.91;76.80;100689.02;5002213;57;1138942;-77
2021/03/04 18:01:51;;;;;;;34.00;15.63;;;;;;;2.90;77.04;100689.11;5002903;57;1139185;-77
2021/03/04 18:06:56;;;;;;;27.30;12.80;;;;;;;2.87;77.05;100688.78;5002522;58;1138965;-76
2021/03/04 18:12:03;;;;;;;40.27;18.40;;;;;;;2.90;77.05;100696.49;5002881;58;1138902;-78
2021/03/04 18:17:09;;;;;;;35.73;16.83;;;;;;;2.89;76.97;100682.19;5086779;56;1139003;-80
2021/03/04 18:22:16;;;;;;;55.70;30.43;;;;;;;2.90;77.15;100682.13;5105471;56;1138966;-77
2021/03/04 18:27:23;;;;;;;76.77;41.95;;;;;;;2.95;77.12;100674.06;5171187;56;1138888;-81
2021/03/04 18:32:32;;;;;;;48.67;25.73;;;;;;;2.95;77.54;100674.06;5171203;56;1138919;-80
2021/03/04 18:37:39;;;;;;;38.03;17.03;;;;;;;3.04;77.39;100684.13;5168622;56;1139105;-79
2021/03/04 18:42:46;;;;;;;34.90;16.80;;;;;;;3.04;77.23;100678.45;5156510;56;1139384;-76
2021/03/04 18:47:53;;;;;;;37.43;18.20;;;;;;;2.96;77.56;100683.59;5121149;56;1139198;-77
2021/03/04 18:52:59;;;;;;;35.53;14.50;;;;;;;2.96;77.56;100683.59;5156593;56;1138746;-76
2021/03/04 18:58:05;;;;;;;23.67;13.93;;;;;;;2.95;77.50;100682.75;5157116;56;1138581;-76
2021/03/04 19:03:12;;;;;;;40.07;15.90;;;;;;;3.00;77.82;100682.11;5157065;56;1140897;-75
2021/03/04 19:08:19;;;;;;;36.30;16.93;;;;;;;2.96;77.75;100683.14;5157037;56;1138578;-75
2021/03/04 19:13:25;;;;;;;41.20;16.60;;;;;;;2.98;77.97;100685.23;5156248;56;1138752;-76
2021/03/04 19:18:31;;;;;;;41.83;17.53;;;;;;;3.03;78.11;100683.73;5156189;56;1138610;-77
2021/03/04 19:23:37;;;;;;;36.13;16.13;;;;;;;3.03;77.87;100687.66;5156585;56;1138781;-75
2021/03/04 19:28:42;;;;;;;37.43;18.20;;;;;;;3.09;77.96;100691.29;5147550;56;1140826;-80
2021/03/04 19:33:48;;;;;;;25.00;12.33;;;;;;;3.14;78.32;100685.41;5096696;56;1138473;-78
2021/03/04 19:38:53;;;;;;;26.40;13.20;;;;;;;3.04;77.95;100690.20;5088842;56;1138744;-79
2021/03/04 19:44:00;;;;;;;22.17;9.63;;;;;;;2.99;77.98;100693.92;5081435;56;1138491;-75
2021/03/04 19:49:06;;;;;;;23.03;11.33;;;;;;;2.91;78.09;100699.47;5081032;56;1136352;-73
2021/03/04 19:54:11;;;;;;;26.47;12.27;;;;;;;2.78;78.32;100693.92;5085356;56;1143422;-75
2021/03/04 19:59:17;;;;;;;36.45;19.32;;;;;;;2.73;78.33;100695.05;5085765;56;1138566;-75
2021/03/04 20:04:22;;;;;;;29.77;13.88;;;;;;;2.77;78.62;100690.92;5068817;56;1138561;-75
2021/03/04 20:09:28;;;;;;;37.53;16.95;;;;;;;2.76;78.65;100696.20;5062873;57;1138492;-75
2021/03/04 20:14:34;;;;;;;45.00;20.93;;;;;;;2.73;78.81;100697.66;5063426;57;1138618;-81
2021/03/04 20:19:40;;;;;;;43.27;18.67;;;;;;;2.72;78.87;100700.73;5063308;57;1138425;-73
2021/03/04 20:24:45;;;;;;;39.53;16.63;;;;;;;2.65;79.07;100704.50;5063531;57;1138549;-79
2021/03/04 20:29:51;;;;;;;30.87;15.17;;;;;;;2.67;79.24;100705.75;5063565;57;1138390;-80
2021/03/04 20:34:56;;;;;;;29.80;14.07;;;;;;;2.77;79.44;100718.34;5063340;57;1138469;-80
